sensor_id;sensor_type;location;lat;lon;timestamp;temperature;humidity
74384;DHT22;62824;52.994;-3.936;2023-03-01T00:01:27;5.80;99.90
74384;DHT22;62824;52.994;-3.936;2023-03-01T00:03:54;5.70;99.90
74384;DHT22;62824;52.994;-3.936;2023-03-01T00:06:20;5.70;99.90
74384;DHT22;62824;52.994;-3.936;2023-03-01T00:08:47;5.70;99.90
74384;DHT22;62824;52.994;-3.936;2023-03-01T00:11:20;5.60;99.90
74384;DHT22;62824;52.994;-3.936;2023-03-01T00:13:48;5.60;99.90
74384;DHT22;62824;52.994;-3.936;2023-03-01T00:16:17;5.60;99.90
74384;DHT22;62824;52.994;-3.936;2023-03-01T00:18:43;5.60;99.90
74384;DHT22;62824;52.994;-3.936;2023-03-01T00:21:09;5.60;99.90
74384;DHT22;62824;52.994;-3.936;2023-03-01T00:23:36;5.60;99.90
74384;DHT22;62824;52.994;-3.936;2023-03-01T00:26:05;5.60;99.90
74384;DHT22;62824;52.994;-3.936;2023-03-01T00:28:31;5.60;99.90
74384;DHT22;62824;52.994;-3.936;2023-03-01T00:31:03;5.50;99.90
74384;DHT22;62824;52.994;-3.936;2023-03-01T00:33:29;5.60;99.90
74384;DHT22;62824;52.994;-3.936;2023-03-01T00:35:58;5.60;99.90
74384;DHT22;62824;52.994;-3.936;2023-03-01T00:38:23;5.60;99.90
74384;DHT22;62824;52.994;-3.936;2023-03-01T00:40:49;5.60;99.90
74384;DHT22;62824;52.994;-3.936;2023-03-01T00:43:15;5.60;99.90
74384;DHT22;62824;52.994;-3.936;2023-03-01T00:45:40;5.60;99.90
74384;DHT22;62824;52.994;-3.936;2023-03-01T00:48:06;5.50;99.90
74384;DHT22;62824;52.994;-3.936;2023-03-01T00:50:32;5.50;99.90
74384;DHT22;62824;52.994;-3.936;2023-03-01T00:52:58;5.50;99.90
74384;DHT22;62824;52.994;-3.936;2023-03-01T00:55:24;5.50;99.90
74384;DHT22;62824;52.994;-3.936;2023-03-01T00:57:50;5.40;99.90
74384;DHT22;62824;52.994;-3.936;2023-03-01T01:00:16;5.40;99.90
74384;DHT22;62824;52.994;-3.936;2023-03-01T01:02:42;5.40;99.90
74384;DHT22;62824;52.994;-3.936;2023-03-01T01:05:08;5.40;99.90
74384;DHT22;62824;52.994;-3.936;2023-03-01T01:07:34;5.40;99.90
74384;DHT22;62824;52.994;-3.936;2023-03-01T01:10:00;5.40;99.90
74384;DHT22;62824;52.994;-3.936;2023-03-01T01:12:26;5.40;99.90
74384;DHT22;62824;52.994;-3.936;2023-03-01T01:14:51;5.30;99.90
74384;DHT22;62824;52.994;-3.936;2023-03-01T01:17:17;5.30;99.90
74384;DHT22;62824;52.994;-3.936;2023-03-01T01:19:43;5.30;99.90
74384;DHT22;62824;52.994;-3.936;2023-03-01T01:22:08;5.40;99.90
74384;DHT22;62824;52.994;-3.936;2023-03-01T01:24:35;5.40;99.90
74384;DHT22;62824;52.994;-3.936;2023-03-01T01:27:00;5.40;99.90
74384;DHT22;62824;52.994;-3.936;2023-03-01T01:29:26;5.40;99.90
74384;DHT22;62824;52.994;-3.936;2023-03-01T01:31:52;5.40;99.90
74384;DHT22;62824;52.994;-3.936;2023-03-01T01:34:20;5.40;99.90
74384;DHT22;62824;52.994;-3.936;2023-03-01T01:36:50;5.40;99.90
74384;DHT22;62824;52.994;-3.936;2023-03-01T01:39:16;5.40;99.90
74384;DHT22;62824;52.994;-3.936;2023-03-01T01:41:43;5.40;99.90
74384;DHT22;62824;52.994;-3.936;2023-03-01T01:44:16;5.40;99.90
74384;DHT22;62824;52.994;-3.936;2023-03-01T01:47:04;5.40;99.90
74384;DHT22;62824;52.994;-3.936;2023-03-01T01:49:47;5.40;99.90
74384;DHT22;62824;52.994;-3.936;2023-03-01T01:57:40;5.40;99.90
74384;DHT22;62824;52.994;-3.936;2023-03-01T02:00:18;5.40;99.90
74384;DHT22;62824;52.994;-3.936;2023-03-01T02:02:46;5.40;99.90
74384;DHT22;62824;52.994;-3.936;2023-03-01T02:05:36;5.40;99.90
74384;DHT22;62824;52.994;-3.936;2023-03-01T02:08:04;5.50;99.90
74384;DHT22;62824;52.994;-3.936;2023-03-01T02:10:32;5.50;99.90
74384;DHT22;62824;52.994;-3.936;2023-03-01T02:13:01;5.50;99.90
74384;DHT22;62824;52.994;-3.936;2023-03-01T02:15:35;5.50;99.90
74384;DHT22;62824;52.994;-3.936;2023-03-01T02:18:02;5.50;99.60
74384;DHT22;62824;52.994;-3.936;2023-03-01T02:23:15;5.60;99.50
74384;DHT22;62824;52.994;-3.936;2023-03-01T02:25:50;5.60;99.30
74384;DHT22;62824;52.994;-3.936;2023-03-01T02:30:57;5.60;98.80
74384;DHT22;62824;52.994;-3.936;2023-03-01T02:33:42;5.60;99.40
74384;DHT22;62824;52.994;-3.936;2023-03-01T02:36:21;5.50;99.60
74384;DHT22;62824;52.994;-3.936;2023-03-01T02:38:51;5.50;99.50
74384;DHT22;62824;52.994;-3.936;2023-03-01T02:41:19;5.50;99.90
74384;DHT22;62824;52.994;-3.936;2023-03-01T02:43:45;5.50;98.90
74384;DHT22;62824;52.994;-3.936;2023-03-01T02:46:20;5.50;98.90
74384;DHT22;62824;52.994;-3.936;2023-03-01T02:48:54;5.50;98.90
74384;DHT22;62824;52.994;-3.936;2023-03-01T02:54:18;5.40;99.90
74384;DHT22;62824;52.994;-3.936;2023-03-01T02:56:47;5.30;99.90
74384;DHT22;62824;52.994;-3.936;2023-03-01T02:59:19;5.20;99.90
74384;DHT22;62824;52.994;-3.936;2023-03-01T03:01:45;5.30;99.90
74384;DHT22;62824;52.994;-3.936;2023-03-01T03:04:14;5.30;99.90
74384;DHT22;62824;52.994;-3.936;2023-03-01T03:06:45;5.20;99.90
74384;DHT22;62824;52.994;-3.936;2023-03-01T03:09:11;5.20;99.90
74384;DHT22;62824;52.994;-3.936;2023-03-01T03:11:37;5.20;99.90
74384;DHT22;62824;52.994;-3.936;2023-03-01T03:14:05;5.20;99.90
74384;DHT22;62824;52.994;-3.936;2023-03-01T03:16:31;5.20;99.90
74384;DHT22;62824;52.994;-3.936;2023-03-01T03:18:57;5.20;99.90
74384;DHT22;62824;52.994;-3.936;2023-03-01T03:21:31;5.20;99.90
74384;DHT22;62824;52.994;-3.936;2023-03-01T03:24:01;5.20;99.90
74384;DHT22;62824;52.994;-3.936;2023-03-01T03:26:28;5.20;99.90
74384;DHT22;62824;52.994;-3.936;2023-03-01T03:28:54;5.20;99.90
74384;DHT22;62824;52.994;-3.936;2023-03-01T03:31:20;5.20;99.90
74384;DHT22;62824;52.994;-3.936;2023-03-01T03:33:45;5.20;99.90
74384;DHT22;62824;52.994;-3.936;2023-03-01T03:36:23;5.10;99.90
74384;DHT22;62824;52.994;-3.936;2023-03-01T03:38:49;5.20;99.90
74384;DHT22;62824;52.994;-3.936;2023-03-01T03:41:15;5.20;99.90
74384;DHT22;62824;52.994;-3.936;2023-03-01T03:43:42;5.10;99.90
74384;DHT22;62824;52.994;-3.936;2023-03-01T03:46:09;5.10;99.90
74384;DHT22;62824;52.994;-3.936;2023-03-01T03:48:38;5.10;99.90
74384;DHT22;62824;52.994;-3.936;2023-03-01T03:51:04;5.10;99.90
74384;DHT22;62824;52.994;-3.936;2023-03-01T03:53:33;5.10;99.90
74384;DHT22;62824;52.994;-3.936;2023-03-01T03:55:59;5.10;99.90
74384;DHT22;62824;52.994;-3.936;2023-03-01T03:58:25;5.10;99.90
74384;DHT22;62824;52.994;-3.936;2023-03-01T04:00:54;5.10;99.90
74384;DHT22;62824;52.994;-3.936;2023-03-01T04:03:22;5.20;99.90
74384;DHT22;62824;52.994;-3.936;2023-03-01T04:05:49;5.20;99.90
74384;DHT22;62824;52.994;-3.936;2023-03-01T04:08:22;5.10;99.90
74384;DHT22;62824;52.994;-3.936;2023-03-01T04:10:51;5.10;99.90
74384;DHT22;62824;52.994;-3.936;2023-03-01T04:13:20;5.10;99.90
74384;DHT22;62824;52.994;-3.936;2023-03-01T04:15:50;5.10;99.90
74384;DHT22;62824;52.994;-3.936;2023-03-01T04:18:18;5.10;99.90
74384;DHT22;62824;52.994;-3.936;2023-03-01T04:20:45;5.10;99.90
74384;DHT22;62824;52.994;-3.936;2023-03-01T04:23:11;5.10;99.90
74384;DHT22;62824;52.994;-3.936;2023-03-01T04:25:53;5.10;99.90
74384;DHT22;62824;52.994;-3.936;2023-03-01T04:30:51;5.10;99.90
74384;DHT22;62824;52.994;-3.936;2023-03-01T04:33:17;5.10;99.90
74384;DHT22;62824;52.994;-3.936;2023-03-01T04:35:42;5.10;99.90
74384;DHT22;62824;52.994;-3.936;2023-03-01T04:38:09;5.00;99.90
74384;DHT22;62824;52.994;-3.936;2023-03-01T04:40:35;5.00;99.90
74384;DHT22;62824;52.994;-3.936;2023-03-01T04:43:01;5.00;99.90
74384;DHT22;62824;52.994;-3.936;2023-03-01T04:45:27;5.10;99.90
74384;DHT22;62824;52.994;-3.936;2023-03-01T04:47:53;5.10;99.90
74384;DHT22;62824;52.994;-3.936;2023-03-01T04:50:19;5.00;99.90
74384;DHT22;62824;52.994;-3.936;2023-03-01T04:52:50;5.00;99.90
74384;DHT22;62824;52.994;-3.936;2023-03-01T04:55:16;5.10;99.90
74384;DHT22;62824;52.994;-3.936;2023-03-01T04:57:42;5.00;99.90
74384;DHT22;62824;52.994;-3.936;2023-03-01T05:00:10;5.10;99.90
74384;DHT22;62824;52.994;-3.936;2023-03-01T05:02:54;5.10;99.90
74384;DHT22;62824;52.994;-3.936;2023-03-01T05:05:28;5.00;99.90
74384;DHT22;62824;52.994;-3.936;2023-03-01T05:07:58;4.90;99.90
74384;DHT22;62824;52.994;-3.936;2023-03-01T05:10:26;4.90;99.90
74384;DHT22;62824;52.994;-3.936;2023-03-01T05:12:54;4.90;99.90
74384;DHT22;62824;52.994;-3.936;2023-03-01T05:15:20;4.90;99.90
74384;DHT22;62824;52.994;-3.936;2023-03-01T05:17:51;4.90;99.90
74384;DHT22;62824;52.994;-3.936;2023-03-01T05:20:17;4.90;99.90
74384;DHT22;62824;52.994;-3.936;2023-03-01T05:22:43;4.80;99.90
74384;DHT22;62824;52.994;-3.936;2023-03-01T05:25:09;4.80;99.90
74384;DHT22;62824;52.994;-3.936;2023-03-01T05:27:35;4.80;99.90
74384;DHT22;62824;52.994;-3.936;2023-03-01T05:30:02;4.80;99.90
74384;DHT22;62824;52.994;-3.936;2023-03-01T05:32:50;4.80;99.90
74384;DHT22;62824;52.994;-3.936;2023-03-01T05:35:21;4.80;99.90
74384;DHT22;62824;52.994;-3.936;2023-03-01T05:37:48;4.90;99.90
74384;DHT22;62824;52.994;-3.936;2023-03-01T05:40:20;4.80;99.90
74384;DHT22;62824;52.994;-3.936;2023-03-01T05:42:48;4.80;99.90
74384;DHT22;62824;52.994;-3.936;2023-03-01T05:45:15;4.80;99.90
74384;DHT22;62824;52.994;-3.936;2023-03-01T05:47:43;4.80;99.90
74384;DHT22;62824;52.994;-3.936;2023-03-01T05:50:29;4.70;99.90
74384;DHT22;62824;52.994;-3.936;2023-03-01T05:53:03;4.80;99.90
74384;DHT22;62824;52.994;-3.936;2023-03-01T05:55:31;4.80;99.90
74384;DHT22;62824;52.994;-3.936;2023-03-01T05:58:01;4.70;99.90
74384;DHT22;62824;52.994;-3.936;2023-03-01T06:00:29;4.70;99.90
74384;DHT22;62824;52.994;-3.936;2023-03-01T06:02:56;4.80;99.90
74384;DHT22;62824;52.994;-3.936;2023-03-01T06:05:23;4.80;99.90
74384;DHT22;62824;52.994;-3.936;2023-03-01T06:07:49;4.80;99.90
74384;DHT22;62824;52.994;-3.936;2023-03-01T06:10:16;4.70;99.90
74384;DHT22;62824;52.994;-3.936;2023-03-01T06:12:43;4.70;99.90
74384;DHT22;62824;52.994;-3.936;2023-03-01T06:15:11;4.70;99.90
74384;DHT22;62824;52.994;-3.936;2023-03-01T06:17:39;4.70;99.90
74384;DHT22;62824;52.994;-3.936;2023-03-01T06:20:09;4.80;99.90
74384;DHT22;62824;52.994;-3.936;2023-03-01T06:22:35;4.70;99.90
74384;DHT22;62824;52.994;-3.936;2023-03-01T06:25:01;4.80;99.90
74384;DHT22;62824;52.994;-3.936;2023-03-01T06:27:27;4.70;99.90
74384;DHT22;62824;52.994;-3.936;2023-03-01T06:29:53;4.60;99.90
74384;DHT22;62824;52.994;-3.936;2023-03-01T06:32:19;4.60;99.90
74384;DHT22;62824;52.994;-3.936;2023-03-01T06:34:45;4.60;99.90
74384;DHT22;62824;52.994;-3.936;2023-03-01T06:37:11;4.60;99.90
74384;DHT22;62824;52.994;-3.936;2023-03-01T06:39:36;4.60;99.90
74384;DHT22;62824;52.994;-3.936;2023-03-01T06:42:02;4.60;99.90
74384;DHT22;62824;52.994;-3.936;2023-03-01T06:44:28;4.60;99.90
74384;DHT22;62824;52.994;-3.936;2023-03-01T06:46:54;4.70;99.90
74384;DHT22;62824;52.994;-3.936;2023-03-01T06:49:19;4.60;99.90
74384;DHT22;62824;52.994;-3.936;2023-03-01T06:51:46;4.50;99.90
74384;DHT22;62824;52.994;-3.936;2023-03-01T06:54:12;4.50;99.90
74384;DHT22;62824;52.994;-3.936;2023-03-01T06:56:38;4.50;99.90
74384;DHT22;62824;52.994;-3.936;2023-03-01T06:59:04;4.50;99.90
74384;DHT22;62824;52.994;-3.936;2023-03-01T07:01:31;4.50;99.90
74384;DHT22;62824;52.994;-3.936;2023-03-01T07:03:57;4.60;99.90
74384;DHT22;62824;52.994;-3.936;2023-03-01T07:06:23;4.60;99.90
74384;DHT22;62824;52.994;-3.936;2023-03-01T07:08:49;4.50;99.90
74384;DHT22;62824;52.994;-3.936;2023-03-01T07:11:15;4.60;99.90
74384;DHT22;62824;52.994;-3.936;2023-03-01T07:13:41;4.50;99.90
74384;DHT22;62824;52.994;-3.936;2023-03-01T07:16:07;4.60;99.90
74384;DHT22;62824;52.994;-3.936;2023-03-01T07:18:33;4.60;99.90
74384;DHT22;62824;52.994;-3.936;2023-03-01T07:21:07;4.70;99.90
74384;DHT22;62824;52.994;-3.936;2023-03-01T07:23:34;4.60;99.90
74384;DHT22;62824;52.994;-3.936;2023-03-01T07:26:00;4.70;99.90
74384;DHT22;62824;52.994;-3.936;2023-03-01T07:28:26;4.70;99.90
74384;DHT22;62824;52.994;-3.936;2023-03-01T07:30:53;4.60;99.90
74384;DHT22;62824;52.994;-3.936;2023-03-01T07:33:19;4.70;99.90
74384;DHT22;62824;52.994;-3.936;2023-03-01T07:35:44;4.70;99.90
74384;DHT22;62824;52.994;-3.936;2023-03-01T07:38:10;4.70;99.90
74384;DHT22;62824;52.994;-3.936;2023-03-01T07:40:36;4.70;99.90
74384;DHT22;62824;52.994;-3.936;2023-03-01T07:43:02;4.70;99.90
74384;DHT22;62824;52.994;-3.936;2023-03-01T07:45:28;4.70;99.90
74384;DHT22;62824;52.994;-3.936;2023-03-01T07:47:55;4.70;99.90
74384;DHT22;62824;52.994;-3.936;2023-03-01T07:50:21;4.60;99.90
74384;DHT22;62824;52.994;-3.936;2023-03-01T07:52:48;4.60;99.90
74384;DHT22;62824;52.994;-3.936;2023-03-01T07:55:15;4.60;99.90
74384;DHT22;62824;52.994;-3.936;2023-03-01T07:57:41;4.60;99.90
74384;DHT22;62824;52.994;-3.936;2023-03-01T08:00:10;4.60;99.90
74384;DHT22;62824;52.994;-3.936;2023-03-01T08:02:36;4.70;99.90
74384;DHT22;62824;52.994;-3.936;2023-03-01T08:05:02;4.70;99.90
74384;DHT22;62824;52.994;-3.936;2023-03-01T08:07:28;4.80;99.90
74384;DHT22;62824;52.994;-3.936;2023-03-01T08:09:54;4.80;99.90
74384;DHT22;62824;52.994;-3.936;2023-03-01T08:12:20;4.70;99.90
74384;DHT22;62824;52.994;-3.936;2023-03-01T08:14:45;4.70;99.90
74384;DHT22;62824;52.994;-3.936;2023-03-01T08:17:14;4.80;99.90
74384;DHT22;62824;52.994;-3.936;2023-03-01T08:19:39;4.70;99.90
74384;DHT22;62824;52.994;-3.936;2023-03-01T08:22:05;4.70;99.90
74384;DHT22;62824;52.994;-3.936;2023-03-01T08:24:31;4.80;99.90
74384;DHT22;62824;52.994;-3.936;2023-03-01T08:26:57;4.80;99.90
74384;DHT22;62824;52.994;-3.936;2023-03-01T08:29:23;4.80;99.90
74384;DHT22;62824;52.994;-3.936;2023-03-01T08:31:50;4.90;99.90
74384;DHT22;62824;52.994;-3.936;2023-03-01T08:34:17;4.80;99.90
74384;DHT22;62824;52.994;-3.936;2023-03-01T08:36:45;4.90;99.90
74384;DHT22;62824;52.994;-3.936;2023-03-01T08:39:13;4.90;99.90
74384;DHT22;62824;52.994;-3.936;2023-03-01T08:41:40;4.90;99.90
74384;DHT22;62824;52.994;-3.936;2023-03-01T08:44:07;5.00;99.90
74384;DHT22;62824;52.994;-3.936;2023-03-01T08:46:37;5.00;99.90
74384;DHT22;62824;52.994;-3.936;2023-03-01T08:49:05;5.00;99.90
74384;DHT22;62824;52.994;-3.936;2023-03-01T08:51:31;5.00;99.90
74384;DHT22;62824;52.994;-3.936;2023-03-01T08:54:03;5.00;99.90
74384;DHT22;62824;52.994;-3.936;2023-03-01T08:56:29;5.10;99.90
74384;DHT22;62824;52.994;-3.936;2023-03-01T08:58:55;5.10;99.90
74384;DHT22;62824;52.994;-3.936;2023-03-01T09:01:21;5.10;99.90
74384;DHT22;62824;52.994;-3.936;2023-03-01T09:03:46;5.20;99.90
74384;DHT22;62824;52.994;-3.936;2023-03-01T09:06:13;5.30;99.90
74384;DHT22;62824;52.994;-3.936;2023-03-01T09:08:41;5.30;99.90
74384;DHT22;62824;52.994;-3.936;2023-03-01T09:11:09;5.30;99.90
74384;DHT22;62824;52.994;-3.936;2023-03-01T09:13:35;5.40;99.90
74384;DHT22;62824;52.994;-3.936;2023-03-01T09:16:03;5.40;99.90
74384;DHT22;62824;52.994;-3.936;2023-03-01T09:18:29;5.40;99.90
74384;DHT22;62824;52.994;-3.936;2023-03-01T09:23:33;5.60;99.90
74384;DHT22;62824;52.994;-3.936;2023-03-01T09:25:59;5.70;99.90
74384;DHT22;62824;52.994;-3.936;2023-03-01T09:28:25;5.70;99.90
74384;DHT22;62824;52.994;-3.936;2023-03-01T09:30:52;5.70;99.90
74384;DHT22;62824;52.994;-3.936;2023-03-01T09:33:17;5.70;99.90
74384;DHT22;62824;52.994;-3.936;2023-03-01T09:35:43;5.90;99.90
74384;DHT22;62824;52.994;-3.936;2023-03-01T09:38:13;5.90;99.90
74384;DHT22;62824;52.994;-3.936;2023-03-01T09:40:44;5.80;99.90
74384;DHT22;62824;52.994;-3.936;2023-03-01T09:45:53;5.80;99.90
74384;DHT22;62824;52.994;-3.936;2023-03-01T09:48:22;5.70;99.90
74384;DHT22;62824;52.994;-3.936;2023-03-01T09:50:50;5.90;99.90
74384;DHT22;62824;52.994;-3.936;2023-03-01T09:53:30;6.20;99.90
74384;DHT22;62824;52.994;-3.936;2023-03-01T09:56:11;6.40;99.90
74384;DHT22;62824;52.994;-3.936;2023-03-01T09:58:53;6.90;99.90
74384;DHT22;62824;52.994;-3.936;2023-03-01T10:06:35;6.80;99.90
74384;DHT22;62824;52.994;-3.936;2023-03-01T10:09:26;6.60;99.90
74384;DHT22;62824;52.994;-3.936;2023-03-01T10:11:55;6.60;99.90
74384;DHT22;62824;52.994;-3.936;2023-03-01T10:19:39;6.50;99.90
74384;DHT22;62824;52.994;-3.936;2023-03-01T10:22:22;6.40;99.90
74384;DHT22;62824;52.994;-3.936;2023-03-01T10:24:51;6.40;99.90
74384;DHT22;62824;52.994;-3.936;2023-03-01T10:32:26;6.60;99.90
74384;DHT22;62824;52.994;-3.936;2023-03-01T10:34:52;6.60;99.90
74384;DHT22;62824;52.994;-3.936;2023-03-01T10:37:20;6.60;99.90
74384;DHT22;62824;52.994;-3.936;2023-03-01T10:39:58;6.60;99.90
74384;DHT22;62824;52.994;-3.936;2023-03-01T10:42:32;6.70;99.90
74384;DHT22;62824;52.994;-3.936;2023-03-01T10:45:15;6.70;99.90
74384;DHT22;62824;52.994;-3.936;2023-03-01T10:47:41;7.00;99.90
74384;DHT22;62824;52.994;-3.936;2023-03-01T10:50:25;7.30;99.90
74384;DHT22;62824;52.994;-3.936;2023-03-01T10:53:01;7.20;99.90
74384;DHT22;62824;52.994;-3.936;2023-03-01T10:55:34;7.20;99.90
74384;DHT22;62824;52.994;-3.936;2023-03-01T10:58:08;7.10;99.90
74384;DHT22;62824;52.994;-3.936;2023-03-01T11:00:49;6.90;99.90
74384;DHT22;62824;52.994;-3.936;2023-03-01T11:03:22;6.70;99.90
74384;DHT22;62824;52.994;-3.936;2023-03-01T11:08:47;6.60;99.90
74384;DHT22;62824;52.994;-3.936;2023-03-01T11:11:14;6.60;99.90
74384;DHT22;62824;52.994;-3.936;2023-03-01T11:13:52;6.50;99.90
74384;DHT22;62824;52.994;-3.936;2023-03-01T11:16:25;6.60;99.90
74384;DHT22;62824;52.994;-3.936;2023-03-01T11:19:13;6.50;99.90
74384;DHT22;62824;52.994;-3.936;2023-03-01T11:22:07;6.70;99.90
74384;DHT22;62824;52.994;-3.936;2023-03-01T11:24:45;6.80;99.90
74384;DHT22;62824;52.994;-3.936;2023-03-01T11:29:46;6.90;99.90
74384;DHT22;62824;52.994;-3.936;2023-03-01T11:32:18;7.10;99.90
74384;DHT22;62824;52.994;-3.936;2023-03-01T11:38:37;7.10;99.90
74384;DHT22;62824;52.994;-3.936;2023-03-01T11:46:35;7.40;99.90
74384;DHT22;62824;52.994;-3.936;2023-03-01T12:26:43;6.70;99.90
74384;DHT22;62824;52.994;-3.936;2023-03-01T12:29:02;6.70;99.90
74384;DHT22;62824;52.994;-3.936;2023-03-01T12:32:22;6.50;99.90
74384;DHT22;62824;52.994;-3.936;2023-03-01T12:35:13;6.50;99.90
74384;DHT22;62824;52.994;-3.936;2023-03-01T12:49:08;6.90;99.90
74384;DHT22;62824;52.994;-3.936;2023-03-01T12:51:28;7.10;99.90
74384;DHT22;62824;52.994;-3.936;2023-03-01T12:53:57;7.10;99.90
74384;DHT22;62824;52.994;-3.936;2023-03-01T12:56:30;7.10;99.90
74384;DHT22;62824;52.994;-3.936;2023-03-01T13:07:14;7.10;99.90
74384;DHT22;62824;52.994;-3.936;2023-03-01T13:17:54;6.80;99.90
74384;DHT22;62824;52.994;-3.936;2023-03-01T13:20:31;6.80;99.90
74384;DHT22;62824;52.994;-3.936;2023-03-01T13:23:09;6.80;99.90
74384;DHT22;62824;52.994;-3.936;2023-03-01T13:33:51;7.10;99.90
74384;DHT22;62824;52.994;-3.936;2023-03-01T13:38:57;7.10;99.90
74384;DHT22;62824;52.994;-3.936;2023-03-01T13:46:51;7.30;99.90
74384;DHT22;62824;52.994;-3.936;2023-03-01T13:49:28;7.20;99.90
74384;DHT22;62824;52.994;-3.936;2023-03-01T13:51:54;7.10;99.90
74384;DHT22;62824;52.994;-3.936;2023-03-01T13:54:28;6.90;99.90
74384;DHT22;62824;52.994;-3.936;2023-03-01T13:56:56;6.80;99.90
74384;DHT22;62824;52.994;-3.936;2023-03-01T13:59:24;6.70;99.90
74384;DHT22;62824;52.994;-3.936;2023-03-01T14:01:57;6.80;99.90
74384;DHT22;62824;52.994;-3.936;2023-03-01T14:04:27;6.70;99.90
74384;DHT22;62824;52.994;-3.936;2023-03-01T14:07:12;6.60;99.90
74384;DHT22;62824;52.994;-3.936;2023-03-01T14:09:43;6.60;99.90
74384;DHT22;62824;52.994;-3.936;2023-03-01T14:12:16;6.60;99.90
74384;DHT22;62824;52.994;-3.936;2023-03-01T14:20:23;6.50;99.90
74384;DHT22;62824;52.994;-3.936;2023-03-01T14:22:53;6.60;99.90
74384;DHT22;62824;52.994;-3.936;2023-03-01T14:25:47;6.80;99.90
74384;DHT22;62824;52.994;-3.936;2023-03-01T14:28:19;6.90;99.90
74384;DHT22;62824;52.994;-3.936;2023-03-01T14:30:55;6.80;99.90
74384;DHT22;62824;52.994;-3.936;2023-03-01T14:33:33;6.90;99.90
74384;DHT22;62824;52.994;-3.936;2023-03-01T14:38:36;6.90;99.90
74384;DHT22;62824;52.994;-3.936;2023-03-01T14:41:08;7.10;99.90
74384;DHT22;62824;52.994;-3.936;2023-03-01T14:43:36;7.00;99.90
74384;DHT22;62824;52.994;-3.936;2023-03-01T14:46:03;6.80;99.90
74384;DHT22;62824;52.994;-3.936;2023-03-01T14:48:30;6.80;99.90
74384;DHT22;62824;52.994;-3.936;2023-03-01T14:50:56;6.80;99.90
74384;DHT22;62824;52.994;-3.936;2023-03-01T14:53:25;6.80;99.90
74384;DHT22;62824;52.994;-3.936;2023-03-01T14:55:54;6.80;99.90
74384;DHT22;62824;52.994;-3.936;2023-03-01T14:58:24;6.90;99.90
74384;DHT22;62824;52.994;-3.936;2023-03-01T15:01:01;6.80;99.90
74384;DHT22;62824;52.994;-3.936;2023-03-01T15:03:35;6.90;99.90
74384;DHT22;62824;52.994;-3.936;2023-03-01T15:06:06;7.00;99.90
74384;DHT22;62824;52.994;-3.936;2023-03-01T15:08:33;7.00;99.90
74384;DHT22;62824;52.994;-3.936;2023-03-01T15:11:19;6.70;99.90
74384;DHT22;62824;52.994;-3.936;2023-03-01T15:13:48;6.60;99.90
74384;DHT22;62824;52.994;-3.936;2023-03-01T15:16:17;6.60;99.90
74384;DHT22;62824;52.994;-3.936;2023-03-01T15:18:50;6.50;99.90
74384;DHT22;62824;52.994;-3.936;2023-03-01T15:21:20;6.60;99.90
74384;DHT22;62824;52.994;-3.936;2023-03-01T15:24:05;6.60;99.90
74384;DHT22;62824;52.994;-3.936;2023-03-01T15:26:37;6.60;99.90
74384;DHT22;62824;52.994;-3.936;2023-03-01T15:29:04;6.50;99.90
74384;DHT22;62824;52.994;-3.936;2023-03-01T15:31:42;6.70;99.90
74384;DHT22;62824;52.994;-3.936;2023-03-01T15:34:21;6.90;99.90
74384;DHT22;62824;52.994;-3.936;2023-03-01T15:36:47;6.90;99.90
74384;DHT22;62824;52.994;-3.936;2023-03-01T15:39:36;6.80;99.90
74384;DHT22;62824;52.994;-3.936;2023-03-01T15:44:34;7.00;99.90
74384;DHT22;62824;52.994;-3.936;2023-03-01T15:47:01;6.70;99.90
74384;DHT22;62824;52.994;-3.936;2023-03-01T15:51:55;6.80;99.90
74384;DHT22;62824;52.994;-3.936;2023-03-01T15:54:24;6.70;99.90
74384;DHT22;62824;52.994;-3.936;2023-03-01T15:56:50;6.80;99.90
74384;DHT22;62824;52.994;-3.936;2023-03-01T15:59:17;6.80;99.90
74384;DHT22;62824;52.994;-3.936;2023-03-01T16:01:43;7.00;99.90
74384;DHT22;62824;52.994;-3.936;2023-03-01T16:04:15;7.00;99.90
74384;DHT22;62824;52.994;-3.936;2023-03-01T16:06:53;6.90;99.90
74384;DHT22;62824;52.994;-3.936;2023-03-01T16:09:25;6.90;99.90
74384;DHT22;62824;52.994;-3.936;2023-03-01T16:11:52;6.80;99.90
74384;DHT22;62824;52.994;-3.936;2023-03-01T16:14:18;6.80;99.90
74384;DHT22;62824;52.994;-3.936;2023-03-01T16:16:45;6.70;99.90
74384;DHT22;62824;52.994;-3.936;2023-03-01T16:19:11;6.70;99.90
74384;DHT22;62824;52.994;-3.936;2023-03-01T16:21:37;6.60;99.90
74384;DHT22;62824;52.994;-3.936;2023-03-01T16:24:03;6.60;99.90
74384;DHT22;62824;52.994;-3.936;2023-03-01T16:26:29;6.60;99.90
74384;DHT22;62824;52.994;-3.936;2023-03-01T16:28:56;6.40;99.90
74384;DHT22;62824;52.994;-3.936;2023-03-01T16:31:23;6.40;99.90
74384;DHT22;62824;52.994;-3.936;2023-03-01T16:33:49;6.30;99.90
74384;DHT22;62824;52.994;-3.936;2023-03-01T16:36:19;6.30;99.90
74384;DHT22;62824;52.994;-3.936;2023-03-01T16:38:45;6.30;99.90
74384;DHT22;62824;52.994;-3.936;2023-03-01T16:41:16;6.20;99.90
74384;DHT22;62824;52.994;-3.936;2023-03-01T16:43:42;6.30;99.90
74384;DHT22;62824;52.994;-3.936;2023-03-01T16:46:16;6.40;99.90
74384;DHT22;62824;52.994;-3.936;2023-03-01T16:48:42;6.40;99.90
74384;DHT22;62824;52.994;-3.936;2023-03-01T16:51:08;6.40;99.90
74384;DHT22;62824;52.994;-3.936;2023-03-01T16:53:35;6.30;99.90
74384;DHT22;62824;52.994;-3.936;2023-03-01T16:56:02;6.40;99.90
74384;DHT22;62824;52.994;-3.936;2023-03-01T16:58:28;6.40;99.90
74384;DHT22;62824;52.994;-3.936;2023-03-01T17:00:55;6.40;99.90
74384;DHT22;62824;52.994;-3.936;2023-03-01T17:03:25;6.40;99.90
74384;DHT22;62824;52.994;-3.936;2023-03-01T17:05:54;6.50;99.90
74384;DHT22;62824;52.994;-3.936;2023-03-01T17:08:20;6.50;99.90
74384;DHT22;62824;52.994;-3.936;2023-03-01T17:10:46;6.50;99.90
74384;DHT22;62824;52.994;-3.936;2023-03-01T17:13:12;6.50;99.90
74384;DHT22;62824;52.994;-3.936;2023-03-01T17:15:42;6.40;99.90
74384;DHT22;62824;52.994;-3.936;2023-03-01T17:18:08;6.40;99.90
74384;DHT22;62824;52.994;-3.936;2023-03-01T17:20:34;6.40;99.90
74384;DHT22;62824;52.994;-3.936;2023-03-01T17:23:01;6.40;99.90
74384;DHT22;62824;52.994;-3.936;2023-03-01T17:25:27;6.40;99.90
74384;DHT22;62824;52.994;-3.936;2023-03-01T17:27:53;6.40;99.90
74384;DHT22;62824;52.994;-3.936;2023-03-01T17:30:19;6.40;99.90
74384;DHT22;62824;52.994;-3.936;2023-03-01T17:32:45;6.40;99.90
74384;DHT22;62824;52.994;-3.936;2023-03-01T17:35:10;6.40;99.90
74384;DHT22;62824;52.994;-3.936;2023-03-01T17:37:38;6.40;99.90
74384;DHT22;62824;52.994;-3.936;2023-03-01T17:40:05;6.50;99.90
74384;DHT22;62824;52.994;-3.936;2023-03-01T17:42:31;6.40;99.90
74384;DHT22;62824;52.994;-3.936;2023-03-01T17:44:57;6.40;99.90
74384;DHT22;62824;52.994;-3.936;2023-03-01T17:47:23;6.40;99.90
74384;DHT22;62824;52.994;-3.936;2023-03-01T17:49:49;6.40;99.90
74384;DHT22;62824;52.994;-3.936;2023-03-01T17:52:14;6.30;99.90
74384;DHT22;62824;52.994;-3.936;2023-03-01T17:54:40;6.30;99.90
74384;DHT22;62824;52.994;-3.936;2023-03-01T17:57:06;6.30;99.90
74384;DHT22;62824;52.994;-3.936;2023-03-01T17:59:35;6.40;99.90
74384;DHT22;62824;52.994;-3.936;2023-03-01T18:02:01;6.40;99.90
74384;DHT22;62824;52.994;-3.936;2023-03-01T18:04:28;6.30;99.90
74384;DHT22;62824;52.994;-3.936;2023-03-01T18:06:53;6.30;99.90
74384;DHT22;62824;52.994;-3.936;2023-03-01T18:09:20;6.40;99.90